Time;durP1;ratioP1;P1;durP2;ratioP2;P2;SDS_P1;SDS_P2;PMS_P1;PMS_P2;Temp;Humidity;BMP_temperature;BMP_pressure;BME280_temperature;BME280_humidity;BME280_pressure;Samples;Min_cycle;Max_cycle;Signal;HPM_P1;HPM_P2
2023/03/28 00:00:06;;;;;;;2.20;1.48;;;;;;;0.94;79.12;92885.09;5064978;28;20020;-68
2023/03/28 00:02:31;;;;;;;2.08;1.40;;;;;;;0.94;78.91;92864.13;5064898;28;20211;-68
2023/03/28 00:04:56;;;;;;;2.53;1.63;;;;;;;0.94;77.77;92895.59;5064662;28;20037;-68
2023/03/28 00:07:22;;;;;;;1.73;1.10;;;;;;;0.97;78.74;92887.16;5064989;28;20059;-68
2023/03/28 00:09:48;;;;;;;1.20;0.95;;;;;;;0.88;75.55;92907.19;5065034;28;20227;-67
2023/03/28 00:12:13;;;;;;;1.50;1.10;;;;;;;0.78;75.20;92873.97;5064733;28;20028;-68
2023/03/28 00:14:39;;;;;;;1.70;1.08;;;;;;;0.67;75.47;92895.31;5064821;28;20096;-68
2023/03/28 00:17:06;;;;;;;1.30;0.85;;;;;;;0.63;76.45;92900.31;5064513;28;20350;-68
2023/03/28 00:19:32;;;;;;;2.45;1.17;;;;;;;0.64;75.31;92919.47;5064590;28;20319;-68
2023/03/28 00:21:58;;;;;;;1.50;1.00;;;;;;;0.68;76.95;92917.88;5063971;28;20028;-68
2023/03/28 00:24:24;;;;;;;4.55;1.50;;;;;;;0.72;77.55;92939.88;5064422;28;20029;-68
2023/03/28 00:26:53;;;;;;;2.03;1.17;;;;;;;0.75;76.18;92937.47;5064589;28;20031;-68
2023/03/28 00:29:20;;;;;;;2.45;1.13;;;;;;;0.68;75.73;92942.25;5064540;28;20016;-68
2023/03/28 00:31:46;;;;;;;1.65;1.10;;;;;;;0.70;77.38;92968.22;5064234;28;20013;-68
2023/03/28 00:34:12;;;;;;;1.88;1.23;;;;;;;0.57;76.84;92961.72;5064276;28;20032;-68
2023/03/28 00:36:40;;;;;;;1.95;1.33;;;;;;;0.59;76.47;92962.22;5064313;28;20022;-68
2023/03/28 00:39:06;;;;;;;1.80;1.25;;;;;;;0.60;76.42;92969.06;5064076;28;20032;-68
2023/03/28 00:41:34;;;;;;;2.38;1.40;;;;;;;0.54;76.39;92960.44;5064164;28;20044;-68
2023/03/28 00:44:01;;;;;;;2.63;1.42;;;;;;;0.40;76.58;93011.91;5063962;28;20367;-68
2023/03/28 00:46:34;;;;;;;1.83;1.20;;;;;;;0.36;76.72;93035.25;5064052;28;20027;-68
2023/03/28 00:49:12;;;;;;;2.25;1.50;;;;;;;0.26;76.55;92984.72;5063859;28;20053;-68
2023/03/28 00:51:43;;;;;;;2.42;1.83;;;;;;;0.17;77.29;93002.84;5064054;28;20020;-68
2023/03/28 00:54:13;;;;;;;3.28;1.90;;;;;;;0.08;76.97;93028.03;5063930;28;20079;-68
2023/03/28 00:56:42;;;;;;;3.58;2.22;;;;;;;0.08;78.28;93015.72;5063851;28;20440;-68
2023/03/28 00:59:11;;;;;;;3.03;2.17;;;;;;;-0.05;77.59;93018.91;5063898;28;20020;-68
2023/03/28 01:01:37;;;;;;;3.92;3.00;;;;;;;-0.13;76.79;92998.50;5063882;28;20013;-68
2023/03/28 01:04:04;;;;;;;3.88;2.33;;;;;;;-0.17;77.52;93003.50;5063832;28;20031;-68
2023/03/28 01:06:32;;;;;;;4.15;2.30;;;;;;;-0.18;77.66;93011.59;5063508;28;20021;-68
2023/03/28 01:08:59;;;;;;;3.00;2.15;;;;;;;-0.21;77.25;93016.31;5063704;28;20033;-68
2023/03/28 01:11:26;;;;;;;3.65;2.60;;;;;;;-0.24;77.39;93055.38;5063587;28;20029;-68
2023/03/28 01:13:53;;;;;;;3.45;2.25;;;;;;;-0.33;76.85;93031.53;5063417;28;20066;-68
2023/03/28 01:16:20;;;;;;;3.30;2.20;;;;;;;-0.33;76.75;93026.31;5063646;28;20021;-68
2023/03/28 01:18:50;;;;;;;3.97;2.47;;;;;;;-0.34;76.15;93037.84;5063326;28;20046;-68
2023/03/28 01:21:27;;;;;;;2.97;2.00;;;;;;;-0.36;76.60;93042.56;5063416;28;20032;-68
2023/03/28 01:24:30;;;;;;;3.80;2.38;;;;;;;-0.27;76.70;93055.91;5063291;28;20028;-68
2023/03/28 01:27:28;;;;;;;2.85;2.08;;;;;;;-0.37;75.83;93048.84;5063163;28;20195;-68
2023/03/28 01:30:35;;;;;;;3.60;2.25;;;;;;;-0.29;75.71;93064.00;5063285;28;20100;-68
2023/03/28 01:33:28;;;;;;;3.50;2.10;;;;;;;-0.31;75.03;93039.91;5062080;28;20315;-68
2023/03/28 01:36:15;;;;;;;3.03;2.10;;;;;;;-0.28;75.61;93062.97;5063148;28;20036;-68
2023/03/28 01:38:56;;;;;;;3.00;1.85;;;;;;;-0.37;75.10;93075.03;5063044;28;20082;-68
2023/03/28 01:41:48;;;;;;;3.28;2.05;;;;;;;-0.40;74.73;93049.38;5063397;28;20048;-68
2023/03/28 01:44:40;;;;;;;3.28;2.00;;;;;;;-0.42;74.22;93078.44;5052910;28;20294;-69
2023/03/28 01:47:26;;;;;;;3.83;2.33;;;;;;;-0.31;74.88;93060.88;5062936;28;20227;-68
2023/03/28 01:50:17;;;;;;;3.10;1.90;;;;;;;-0.28;74.44;93059.56;5062922;28;20043;-68
2023/03/28 01:53:13;;;;;;;4.15;2.08;;;;;;;-0.37;73.84;93058.53;5062765;28;20029;-68
2023/03/28 01:55:39;;;;;;;3.25;2.10;;;;;;;-0.35;74.02;93080.78;5062992;28;20017;-68
2023/03/28 01:58:38;;;;;;;2.67;1.73;;;;;;;-0.36;73.63;93066.13;5062763;28;20036;-68
2023/03/28 02:01:15;;;;;;;2.35;1.70;;;;;;;-0.42;73.87;93059.34;5062886;28;20033;-68
2023/03/28 02:03:47;;;;;;;5.28;2.42;;;;;;;-0.36;74.19;93081.84;5062762;28;20377;-68
2023/03/28 02:06:13;;;;;;;2.58;1.83;;;;;;;-0.45;73.84;93083.41;5062659;28;20032;-68
2023/03/28 02:08:42;;;;;;;3.72;2.67;;;;;;;-0.48;74.38;93066.41;5062883;28;20040;-68
2023/03/28 02:11:09;;;;;;;3.08;2.20;;;;;;;-0.48;74.43;93052.53;5062607;28;20029;-68
2023/03/28 02:13:45;;;;;;;4.22;2.97;;;;;;;-0.45;75.07;93057.22;5062633;28;20028;-68
2023/03/28 02:16:12;;;;;;;6.22;2.85;;;;;;;-0.47;75.04;93064.56;5062641;28;20024;-68
2023/03/28 02:18:42;;;;;;;4.20;2.70;;;;;;;-0.46;75.21;93032.09;5062525;28;20243;-68
2023/03/28 02:21:12;;;;;;;4.72;2.97;;;;;;;-0.43;75.78;93027.13;5062669;28;20020;-69
2023/03/28 02:23:42;;;;;;;4.53;2.70;;;;;;;-0.47;75.07;93027.91;5062450;28;20092;-68
2023/03/28 02:26:08;;;;;;;3.90;2.40;;;;;;;-0.43;75.32;93027.13;5062523;28;20040;-68
2023/03/28 02:28:38;;;;;;;4.07;2.40;;;;;;;-0.36;75.90;93020.84;5062549;28;20222;-68
2023/03/28 02:31:06;;;;;;;3.65;2.40;;;;;;;-0.34;75.46;93024.75;5062618;28;20024;-68
2023/03/28 02:33:38;;;;;;;5.47;2.63;;;;;;;-0.27;76.29;93071.59;5062425;28;20280;-68
2023/03/28 02:36:30;;;;;;;3.50;2.25;;;;;;;-0.29;74.48;93045.69;5062439;28;20024;-68
2023/03/28 02:39:24;;;;;;;2.22;1.33;;;;;;;-0.32;73.45;93048.06;5062498;28;20024;-68
2023/03/28 02:42:07;;;;;;;2.67;1.30;;;;;;;-0.32;72.30;93063.78;5062557;28;20029;-68
2023/03/28 02:44:47;;;;;;;2.20;1.40;;;;;;;-0.33;73.31;93062.97;5064720;28;20025;-68
2023/03/28 02:47:16;;;;;;;2.53;1.33;;;;;;;-0.32;73.26;93048.06;5066431;28;20021;-68
2023/03/28 02:49:58;;;;;;;5.53;1.95;;;;;;;-0.26;73.02;93052.25;5066235;28;20250;-68
2023/03/28 02:52:52;;;;;;;3.55;1.65;;;;;;;-0.32;73.94;93033.13;5066185;28;20031;-68
2023/03/28 02:55:18;;;;;;;1.58;1.15;;;;;;;-0.34;72.80;93019.50;5066531;28;20074;-69
2023/03/28 02:57:59;;;;;;;1.80;1.02;;;;;;;-0.33;72.34;93057.72;5066145;28;20326;-68
2023/03/28 03:00:25;;;;;;;4.40;1.50;;;;;;;-0.36;72.44;93049.63;5066180;28;20208;-69
2023/03/28 03:02:50;;;;;;;1.20;0.90;;;;;;;-0.38;71.75;93030.78;5066262;28;20025;-68
2023/03/28 03:05:19;;;;;;;2.58;1.40;;;;;;;-0.38;71.53;93023.72;5065994;28;20033;-68
2023/03/28 03:07:45;;;;;;;3.67;1.60;;;;;;;-0.36;71.82;93050.41;5065879;28;20030;-68
2023/03/28 03:10:13;;;;;;;3.38;1.55;;;;;;;-0.36;70.93;93058.28;5066171;28;20446;-69
2023/03/28 03:12:39;;;;;;;2.03;1.30;;;;;;;-0.35;70.64;93031.03;5066009;28;20048;-69
2023/03/28 03:15:06;;;;;;;2.13;1.20;;;;;;;-0.33;70.76;93041.25;5065945;28;20074;-68
2023/03/28 03:17:32;;;;;;;2.30;1.30;;;;;;;-0.36;70.36;93050.41;5065603;28;20029;-72
2023/03/28 03:19:58;;;;;;;1.52;1.17;;;;;;;-0.32;70.30;93054.06;5065464;28;20055;-69
2023/03/28 03:22:24;;;;;;;5.53;1.52;;;;;;;-0.36;70.02;93050.41;5065651;28;20083;-68
2023/03/28 03:24:49;;;;;;;1.77;0.93;;;;;;;-0.32;69.27;93054.06;5065646;28;20071;-68
2023/03/28 03:27:19;;;;;;;2.63;1.08;;;;;;;-0.37;69.22;93045.44;5065415;28;20254;-68
2023/03/28 03:29:45;;;;;;;2.70;1.30;;;;;;;-0.38;69.83;93054.34;5065631;28;20036;-68
2023/03/28 03:32:11;;;;;;;2.30;1.27;;;;;;;-0.39;70.85;93061.41;5065388;28;20216;-69
2023/03/28 03:34:36;;;;;;;2.17;1.17;;;;;;;-0.37;70.58;93067.16;5065441;28;20044;-69
2023/03/28 03:37:03;;;;;;;1.27;0.93;;;;;;;-0.41;69.76;93071.34;5065543;28;20040;-69
2023/03/28 03:39:29;;;;;;;2.10;1.30;;;;;;;-0.49;69.66;93056.19;5065478;28;20029;-68
2023/03/28 03:41:55;;;;;;;5.00;1.20;;;;;;;-0.42;69.65;93072.44;5065301;28;20224;-69
2023/03/28 03:44:21;;;;;;;2.08;1.52;;;;;;;-0.41;69.36;93060.88;5065360;28;20025;-69
2023/03/28 03:46:47;;;;;;;1.65;1.00;;;;;;;-0.49;68.50;93064.03;5065481;28;20044;-69
2023/03/28 03:49:12;;;;;;;1.50;0.98;;;;;;;-0.54;67.72;93074.53;5065046;28;20275;-68
2023/03/28 03:51:38;;;;;;;2.03;1.20;;;;;;;-0.54;68.38;93083.16;5065225;28;20108;-68
2023/03/28 03:54:04;;;;;;;2.25;1.17;;;;;;;-0.62;68.35;93097.56;5065013;28;20028;-69
2023/03/28 03:56:30;;;;;;;1.60;1.10;;;;;;;-0.61;68.63;93091.28;5063947;28;20025;-68
2023/03/28 03:58:56;;;;;;;4.30;1.40;;;;;;;-0.63;69.25;93113.53;5065088;28;20021;-68
2023/03/28 04:01:24;;;;;;;4.43;1.27;;;;;;;-0.59;69.95;93106.72;5065020;28;20020;-69
2023/03/28 04:03:50;;;;;;;1.60;1.08;;;;;;;-0.68;69.22;93101.22;5065170;28;20021;-68
2023/03/28 04:06:17;;;;;;;1.20;1.00;;;;;;;-0.61;69.40;93124.53;5064831;28;20029;-69
2023/03/28 04:08:43;;;;;;;4.63;1.40;;;;;;;-0.71;69.04;93141.00;5064876;28;20096;-69
2023/03/28 04:11:09;;;;;;;2.95;1.10;;;;;;;-0.65;69.46;93113.00;5064906;28;20052;-69
2023/03/28 04:13:35;;;;;;;1.88;1.20;;;;;;;-0.71;68.40;93117.44;5064797;28;20021;-69
2023/03/28 04:16:01;;;;;;;4.40;1.10;;;;;;;-0.74;68.51;93132.88;5064869;28;20092;-69
2023/03/28 04:18:28;;;;;;;2.47;1.27;;;;;;;-0.73;68.88;93127.41;5064456;28;20028;-68
2023/03/28 04:20:57;;;;;;;2.03;1.30;;;;;;;-0.73;68.75;93130.00;5064775;28;20021;-68
2023/03/28 04:23:26;;;;;;;1.40;1.02;;;;;;;-0.76;68.52;93127.91;5064730;28;20028;-68
2023/03/28 04:25:58;;;;;;;3.50;1.40;;;;;;;-0.71;68.83;93169.78;5064696;28;20033;-68
2023/03/28 04:28:24;;;;;;;;;;;;;;;-0.69;67.84;93114.56;5064773;28;20223;-68
2023/03/28 04:30:53;;;;;;;1.90;1.08;;;;;;;-0.79;66.90;93133.66;5064711;28;20102;-67
2023/03/28 04:33:24;;;;;;;2.97;1.42;;;;;;;-0.76;67.14;93153.28;5064503;28;20270;-68
2023/03/28 04:35:56;;;;;;;2.03;1.20;;;;;;;-0.72;66.88;93165.59;5064485;28;20311;-68
2023/03/28 04:38:25;;;;;;;2.80;1.60;;;;;;;-0.72;65.86;93176.06;5064178;28;20032;-68
2023/03/28 04:40:57;;;;;;;1.88;1.20;;;;;;;-0.74;65.84;93177.38;5064373;28;20029;-68
2023/03/28 04:43:29;;;;;;;;;;;;;;;-0.78;66.27;93177.09;5064442;28;20024;-68
2023/03/28 04:45:55;;;;;;;1.67;1.00;;;;;;;-0.89;66.48;93196.44;5063938;28;19908;-68
2023/03/28 04:48:21;;;;;;;1.85;1.17;;;;;;;-0.92;66.79;93208.19;5064024;28;20060;-67
2023/03/28 04:50:47;;;;;;;3.40;1.50;;;;;;;-0.87;66.86;93216.06;5064290;28;20123;-67
2023/03/28 04:53:14;;;;;;;1.92;1.13;;;;;;;-0.86;67.13;93219.47;5064174;28;20036;-68
2023/03/28 04:55:42;;;;;;;2.28;1.27;;;;;;;-0.83;67.37;93230.22;5063829;28;20092;-68
2023/03/28 04:58:09;;;;;;;2.33;1.70;;;;;;;-0.79;67.91;93233.09;5063784;28;20215;-68
2023/03/28 05:00:35;;;;;;;5.78;2.05;;;;;;;-0.74;68.15;93240.19;5064056;28;20084;-68
2023/03/28 05:03:04;;;;;;;6.70;2.13;;;;;;;-0.68;68.09;93229.47;5063959;28;20070;-68
2023/03/28 05:05:31;;;;;;;2.60;1.95;;;;;;;-0.65;68.28;93254.34;5063697;28;20216;-69
2023/03/28 05:07:57;;;;;;;5.07;2.03;;;;;;;-0.76;67.68;93231.78;5063400;28;20024;-69
2023/03/28 05:10:23;;;;;;;2.60;1.83;;;;;;;-0.76;68.72;93229.97;5063664;28;20024;-69
2023/03/28 05:12:49;;;;;;;4.45;2.28;;;;;;;-0.78;68.79;93231.28;5063864;28;20024;-69
2023/03/28 05:15:14;;;;;;;3.15;2.15;;;;;;;-0.72;68.97;93241.47;5063648;28;20016;-70
2023/03/28 05:17:40;;;;;;;3.80;2.38;;;;;;;-0.67;69.56;93249.38;5063680;28;20267;-69
2023/03/28 05:20:10;;;;;;;4.05;2.15;;;;;;;-0.74;68.23;93258.50;5063543;28;20029;-69
2023/03/28 05:22:36;;;;;;;4.05;2.65;;;;;;;-0.75;68.35;93264.75;5063492;28;20223;-68
2023/03/28 05:25:07;;;;;;;7.53;3.15;;;;;;;-0.78;68.57;93250.38;5063254;28;20025;-68
2023/03/28 05:27:33;;;;;;;3.05;1.50;;;;;;;-0.94;69.51;93259.22;5063443;28;20058;-68
2023/03/28 05:30:00;;;;;;;4.20;2.55;;;;;;;-0.96;70.86;93256.84;5063010;28;20024;-68
2023/03/28 05:32:26;;;;;;;3.42;2.40;;;;;;;-0.97;71.46;93272.81;5063461;28;20084;-68
2023/03/28 05:34:52;;;;;;;3.92;2.53;;;;;;;-1.18;71.93;93270.09;5063280;28;20020;-68
2023/03/28 05:37:17;;;;;;;4.00;2.80;;;;;;;-1.26;73.56;93257.50;5063447;28;20272;-69
2023/03/28 05:39:43;;;;;;;4.88;3.00;;;;;;;-1.32;73.81;93267.16;5063046;28;20021;-68
2023/03/28 05:42:08;;;;;;;6.60;3.58;;;;;;;-1.35;72.96;93261.63;5062859;28;20094;-69
2023/03/28 05:44:34;;;;;;;6.00;3.92;;;;;;;-1.29;74.23;93294.63;5063173;28;20369;-70
2023/03/28 05:46:59;;;;;;;5.65;3.85;;;;;;;-1.30;74.03;93303.50;5063043;28;20067;-70
2023/03/28 05:49:24;;;;;;;5.78;4.00;;;;;;;-1.32;74.66;93293.31;5062817;28;20051;-70
2023/03/28 05:51:50;;;;;;;6.70;3.90;;;;;;;-1.32;75.08;93293.31;5062884;28;20017;-69
2023/03/28 05:54:15;;;;;;;7.20;3.97;;;;;;;-1.34;75.64;93287.53;5062569;28;20036;-69
2023/03/28 05:56:41;;;;;;;8.07;4.68;;;;;;;-1.38;77.12;93298.72;5062839;28;20037;-69
2023/03/28 05:59:06;;;;;;;9.77;4.95;;;;;;;-1.39;77.58;93295.34;5062709;28;20311;-69
2023/03/28 06:01:33;;;;;;;8.02;5.25;;;;;;;-1.44;77.81;93309.16;5063003;28;20067;-68
2023/03/28 06:03:59;;;;;;;5.70;4.13;;;;;;;-1.49;78.68;93303.91;5062783;28;20032;-69
2023/03/28 06:06:25;;;;;;;9.27;5.50;;;;;;;-1.48;79.68;93305.47;5062712;28;20021;-69
2023/03/28 06:08:50;;;;;;;11.40;5.80;;;;;;;-1.53;79.28;93297.59;5062883;28;20032;-69
2023/03/28 06:11:15;;;;;;;9.65;5.90;;;;;;;-1.58;78.96;93349.06;5062655;28;20067;-69
2023/03/28 06:13:41;;;;;;;8.98;5.85;;;;;;;-1.68;80.30;93324.41;5062931;28;20256;-69
2023/03/28 06:16:07;;;;;;;9.40;6.18;;;;;;;-1.62;81.20;93320.81;5062694;28;20055;-70
2023/03/28 06:18:32;;;;;;;8.30;4.85;;;;;;;-1.69;81.20;93322.03;5065111;28;20032;-69
2023/03/28 06:20:58;;;;;;;14.68;4.32;;;;;;;-1.76;80.66;93345.00;5069513;28;20067;-69
2023/03/28 06:23:23;;;;;;;6.80;5.05;;;;;;;-1.80;81.76;93336.09;5069421;28;20142;-69
2023/03/28 06:25:49;;;;;;;8.40;4.82;;;;;;;-1.93;82.69;93335.47;5069177;28;20025;-69
2023/03/28 06:28:14;;;;;;;7.05;4.30;;;;;;;-1.87;83.22;93329.25;5069265;28;20024;-70
2023/03/28 06:30:40;;;;;;;8.52;5.43;;;;;;;-1.87;82.77;93331.84;5069344;28;20250;-69
2023/03/28 06:33:06;;;;;;;10.10;5.28;;;;;;;-1.80;80.13;93355.16;5069184;28;20126;-69
2023/03/28 06:35:32;;;;;;;9.65;5.18;;;;;;;-1.74;79.50;93341.09;5069257;28;20021;-69
2023/03/28 06:37:59;;;;;;;5.30;3.47;;;;;;;-1.73;77.23;93344.47;5069128;28;20032;-69
2023/03/28 06:40:25;;;;;;;8.13;4.82;;;;;;;-1.62;77.81;93356.59;5068959;28;20032;-69
2023/03/28 06:42:51;;;;;;;8.05;4.53;;;;;;;-1.51;74.75;93360.09;5069259;28;20191;-69
2023/03/28 06:45:16;;;;;;;6.88;4.03;;;;;;;-1.41;73.99;93375.84;5069211;28;20036;-69
2023/03/28 06:47:42;;;;;;;10.85;3.83;;;;;;;-1.38;73.08;93343.16;5069118;28;20079;-70
2023/03/28 06:50:08;;;;;;;6.72;4.30;;;;;;;-1.33;73.44;93344.00;5069096;28;20035;-70
2023/03/28 06:52:33;;;;;;;7.88;4.07;;;;;;;-1.34;73.70;93346.84;5068832;28;20230;-70
2023/03/28 06:54:59;;;;;;;7.10;4.10;;;;;;;-1.43;74.83;93365.63;5069198;28;20024;-69
2023/03/28 06:57:25;;;;;;;7.20;4.43;;;;;;;-1.38;74.59;93369.31;5069131;28;20024;-69
2023/03/28 06:59:51;;;;;;;6.28;4.45;;;;;;;-1.44;73.84;93364.06;5068990;28;20040;-69
2023/03/28 07:02:17;;;;;;;7.40;4.15;;;;;;;-1.39;74.46;93370.38;5069058;28;20031;-70
2023/03/28 07:04:42;;;;;;;10.65;3.97;;;;;;;-1.37;73.90;93365.69;5068839;28;20025;-70
2023/03/28 07:07:08;;;;;;;6.75;3.97;;;;;;;-1.32;72.99;93376.16;5068955;28;20227;-70
2023/03/28 07:09:35;;;;;;;11.13;3.70;;;;;;;-1.24;70.31;93363.44;5068863;28;20051;-69
2023/03/28 07:12:01;;;;;;;5.80;3.60;;;;;;;-1.27;69.70;93412.81;5068891;28;20100;-69
2023/03/28 07:14:26;;;;;;;7.13;3.25;;;;;;;-1.23;67.30;93369.44;5068573;28;20216;-69
2023/03/28 07:16:52;;;;;;;6.55;3.28;;;;;;;-1.10;66.51;93389.94;5068344;28;20091;-70
2023/03/28 07:19:17;;;;;;;5.07;3.13;;;;;;;-1.11;68.32;93398.03;5068661;28;20319;-70
2023/03/28 07:21:43;;;;;;;5.93;3.28;;;;;;;-1.11;67.16;93404.03;5068826;28;20048;-70
2023/03/28 07:24:08;;;;;;;4.13;2.78;;;;;;;-0.99;67.10;93377.69;5068653;28;20044;-68
2023/03/28 07:26:34;;;;;;;6.10;3.20;;;;;;;-1.02;66.62;93396.50;5068680;28;20032;-68
2023/03/28 07:28:59;;;;;;;5.35;3.08;;;;;;;-1.05;66.42;93407.47;5068628;28;20377;-68
2023/03/28 07:31:25;;;;;;;7.68;3.33;;;;;;;-0.98;65.78;93422.94;5065793;28;20025;-68
2023/03/28 07:33:51;;;;;;;4.47;3.10;;;;;;;-0.94;65.68;93414.34;5065566;28;20234;-68
2023/03/28 07:36:20;;;;;;;4.82;3.20;;;;;;;-0.94;64.54;93414.34;5065557;28;20037;-68
2023/03/28 07:38:46;;;;;;;5.70;2.78;;;;;;;-1.00;64.80;93420.56;5065233;28;20024;-68
2023/03/28 07:41:12;;;;;;;6.88;3.90;;;;;;;-0.95;65.22;93422.47;5065104;28;20050;-68
2023/03/28 07:43:38;;;;;;;10.95;3.42;;;;;;;-0.83;65.54;93429.06;5065287;28;20032;-68
2023/03/28 07:46:07;;;;;;;7.13;3.70;;;;;;;-0.86;64.44;93423.56;5065013;28;20032;-68
2023/03/28 07:48:34;;;;;;;6.05;3.03;;;;;;;-0.91;63.38;93415.69;5064822;28;20072;-67
2023/03/28 07:51:00;;;;;;;8.85;3.70;;;;;;;-0.93;65.29;93425.63;5064742;28;20024;-71
2023/03/28 07:53:26;;;;;;;3.70;2.92;;;;;;;-1.04;63.83;93425.56;5064786;28;20029;-69
2023/03/28 07:55:52;;;;;;;6.35;3.20;;;;;;;-1.12;65.64;93428.63;5064767;28;20021;-70
2023/03/28 07:58:18;;;;;;;7.15;2.75;;;;;;;-1.05;64.90;93434.41;5065061;28;20043;-70
2023/03/28 08:00:44;;;;;;;3.42;2.40;;;;;;;-0.95;63.38;93432.94;5064836;28;20021;-70
2023/03/28 08:03:13;;;;;;;5.68;3.13;;;;;;;-0.97;64.89;93448.09;5064671;28;20345;-70
2023/03/28 08:05:39;;;;;;;3.85;2.45;;;;;;;-0.92;64.87;93453.34;5064752;28;20036;-70
2023/03/28 08:08:05;;;;;;;5.43;3.10;;;;;;;-0.88;66.11;93444.72;5064786;28;20215;-70
2023/03/28 08:10:32;;;;;;;4.18;2.72;;;;;;;-0.86;67.22;93441.88;5064789;28;20025;-69
2023/03/28 08:12:57;;;;;;;4.25;2.70;;;;;;;-1.01;66.94;93461.66;5064589;28;20311;-69
2023/03/28 08:15:23;;;;;;;6.95;3.10;;;;;;;-1.07;66.52;93483.59;5064662;28;20084;-69
2023/03/28 08:17:49;;;;;;;6.70;2.83;;;;;;;-1.01;65.87;93459.03;5064571;28;20246;-70
2023/03/28 08:20:14;;;;;;;4.28;2.35;;;;;;;-1.06;66.36;93471.28;5064637;28;20096;-70
2023/03/28 08:22:40;;;;;;;6.03;3.42;;;;;;;-1.12;66.67;93475.72;5064518;28;20088;-69
2023/03/28 08:25:06;;;;;;;6.30;2.97;;;;;;;-1.10;68.02;93478.06;5064416;28;20017;-69
2023/03/28 08:27:32;;;;;;;11.13;3.63;;;;;;;-1.15;69.03;93470.97;5064543;28;20070;-70
2023/03/28 08:29:58;;;;;;;9.60;2.85;;;;;;;-1.23;68.80;93481.88;5064163;28;20200;-69
2023/03/28 08:32:24;;;;;;;4.53;3.17;;;;;;;-1.16;68.86;93495.56;5064353;28;20063;-69
2023/03/28 08:34:49;;;;;;;4.57;2.70;;;;;;;-1.10;67.72;93478.06;5064585;28;20029;-69
2023/03/28 08:37:14;;;;;;;5.03;3.45;;;;;;;-1.19;68.83;93488.19;5064305;28;20223;-68
2023/03/28 08:39:41;;;;;;;4.03;2.83;;;;;;;-1.20;70.06;93499.69;5064168;28;20215;-69
2023/03/28 08:42:24;;;;;;;7.28;3.22;;;;;;;-1.02;69.36;93501.94;5063573;28;20249;-70
2023/03/28 08:45:18;;;;;;;4.88;2.92;;;;;;;-1.06;67.83;93494.81;5064175;28;20060;-70
2023/03/28 08:47:54;;;;;;;5.68;3.15;;;;;;;-0.97;68.66;93503.81;5054556;28;20271;-70
2023/03/28 08:50:32;;;;;;;4.70;3.13;;;;;;;-0.94;69.03;93528.69;5062994;28;20112;-72
2023/03/28 08:52:58;;;;;;;3.75;3.05;;;;;;;-0.93;66.88;93496.25;5063996;28;20327;-70
2023/03/28 08:55:31;;;;;;;3.42;2.33;;;;;;;-0.82;64.52;93495.28;5063900;28;20331;-70
2023/03/28 08:57:57;;;;;;;7.32;3.10;;;;;;;-0.78;64.38;93506.81;5063836;28;20028;-70
2023/03/28 09:00:37;;;;;;;3.20;2.35;;;;;;;-0.71;64.13;93504.78;5063918;28;20028;-70
2023/03/28 09:03:15;;;;;;;5.00;2.90;;;;;;;-0.79;64.63;93509.69;5063837;28;20021;-71
2023/03/28 09:05:51;;;;;;;3.70;2.38;;;;;;;-0.83;64.34;93488.47;5063600;28;20087;-71
2023/03/28 09:08:55;;;;;;;5.28;3.03;;;;;;;-0.77;65.33;93484.03;5062668;28;20037;-71
2023/03/28 09:11:40;;;;;;;5.20;3.28;;;;;;;-0.63;66.44;93520.03;5063876;28;20201;-70
2023/03/28 09:14:35;;;;;;;5.15;3.22;;;;;;;-0.70;65.26;93508.97;5063595;28;20029;-71
2023/03/28 09:17:12;;;;;;;5.45;3.55;;;;;;;-0.91;65.02;93518.50;5063673;28;20044;-71
2023/03/28 09:20:10;;;;;;;5.07;2.72;;;;;;;-0.89;66.11;93536.59;5063604;28;20024;-72
2023/03/28 09:22:43;;;;;;;5.00;3.15;;;;;;;-0.79;67.17;93520.16;5063340;28;20314;-72
2023/03/28 09:25:29;;;;;;;9.00;3.65;;;;;;;-0.77;65.89;93529.34;5063377;28;20024;-72
2023/03/28 09:28:28;;;;;;;5.03;2.80;;;;;;;-0.70;64.13;93540.38;5063454;28;20096;-71
2023/03/28 09:30:57;;;;;;;5.38;3.05;;;;;;;-0.59;63.16;93529.97;5063446;28;20033;-71
2023/03/28 09:33:44;;;;;;;6.15;3.42;;;;;;;-0.59;62.79;93527.38;5063337;28;20063;-71
2023/03/28 09:36:14;;;;;;;6.18;3.22;;;;;;;-0.57;62.76;93533.13;5063236;28;20058;-72
2023/03/28 09:38:53;;;;;;;4.47;2.80;;;;;;;-0.54;63.83;93540.50;5063258;28;20319;-76
2023/03/28 09:41:26;;;;;;;10.85;3.35;;;;;;;-0.69;63.57;93539.34;5063793;28;20448;-85
2023/03/28 09:43:57;;;;;;;5.60;3.03;;;;;;;-0.62;64.66;93550.38;5063232;28;20025;-86
2023/03/28 09:46:27;;;;;;;5.32;3.13;;;;;;;-0.61;61.85;93538.88;5060916;28;20029;-85
2023/03/28 09:48:53;;;;;;;4.07;3.10;;;;;;;-0.50;62.88;93534.50;5061110;28;20117;-85
2023/03/28 09:51:19;;;;;;;5.65;2.75;;;;;;;-0.59;62.70;93525.56;5062201;28;20033;-85
2023/03/28 09:53:45;;;;;;;5.88;2.92;;;;;;;-0.67;64.41;93537.28;5061164;28;20029;-85
2023/03/28 09:56:32;;;;;;;6.07;2.80;;;;;;;-0.68;63.51;93548.00;5063169;28;20547;-85
2023/03/28 09:59:01;;;;;;;4.38;2.72;;;;;;;-0.56;63.46;93553.06;5063220;28;20218;-85
2023/03/28 10:01:33;;;;;;;3.80;2.40;;;;;;;-0.33;61.85;93536.97;5063021;28;20021;-85
2023/03/28 10:03:59;;;;;;;3.67;2.47;;;;;;;-0.13;59.32;93559.09;5063158;28;20095;-86
2023/03/28 10:06:27;;;;;;;6.03;2.55;;;;;;;-0.23;58.89;93544.09;5061689;28;20025;-85
2023/03/28 10:09:13;;;;;;;6.68;2.95;;;;;;;-0.05;60.02;93529.78;5061334;28;20082;-85
2023/03/28 10:11:49;;;;;;;6.90;2.80;;;;;;;0.07;58.50;93527.75;5061599;28;20016;-86
2023/03/28 10:14:49;;;;;;;3.22;1.92;;;;;;;0.26;55.65;93533.31;5061182;28;20036;-85
2023/03/28 10:17:32;;;;;;;9.93;2.92;;;;;;;0.44;56.92;93539.94;5039015;28;20056;-86
2023/03/28 10:20:22;;;;;;;4.30;2.38;;;;;;;0.45;55.21;93528.41;5056459;28;20071;-84
2023/03/28 10:22:54;;;;;;;4.55;3.08;;;;;;;0.50;56.32;93549.41;5061792;28;20021;-87
2023/03/28 10:25:28;;;;;;;4.20;2.30;;;;;;;0.45;55.64;93567.75;5063168;28;20025;-85
2023/03/28 10:27:54;;;;;;;5.03;2.55;;;;;;;0.51;56.04;93534.44;5062896;28;20025;-87
2023/03/28 10:30:24;;;;;;;4.60;2.60;;;;;;;0.52;55.65;93544.69;5062948;28;20316;-87
2023/03/28 10:33:15;;;;;;;4.28;2.55;;;;;;;0.45;55.13;93531.03;5062947;28;20204;-85
2023/03/28 10:35:44;;;;;;;5.20;2.60;;;;;;;0.64;55.65;93535.81;5062828;28;20024;-85
2023/03/28 10:38:16;;;;;;;4.60;2.38;;;;;;;0.58;57.76;93551.53;5062857;28;20046;-86
2023/03/28 10:40:49;;;;;;;3.50;2.28;;;;;;;0.57;56.78;93562.25;5062696;28;20040;-86
2023/03/28 10:43:15;;;;;;;2.95;2.28;;;;;;;0.60;55.37;93583.53;5061481;28;20028;-85
2023/03/28 10:45:42;;;;;;;6.78;2.17;;;;;;;0.74;56.25;93562.06;5062428;28;20025;-85
2023/03/28 10:48:15;;;;;;;4.85;3.65;;;;;;;0.81;57.11;93557.34;5062571;28;20056;-87
2023/03/28 10:50:48;;;;;;;6.18;2.75;;;;;;;0.69;56.36;93575.16;5062822;28;20317;-86
2023/03/28 10:53:28;;;;;;;;;;;;;;;0.58;57.10;93590.88;5063040;28;20035;-88
2023/03/28 10:56:03;;;;;;;6.78;3.00;;;;;;;0.62;58.38;93545.78;5062844;28;19932;-87
2023/03/28 10:58:46;;;;;;;4.18;2.33;;;;;;;0.66;57.62;93544.22;5062681;28;20025;-86
2023/03/28 11:01:23;;;;;;;3.10;2.28;;;;;;;0.78;56.84;93547.38;5062328;28;20229;-86
2023/03/28 11:04:01;;;;;;;4.82;2.88;;;;;;;0.73;56.87;93549.97;5062498;28;20021;-86
2023/03/28 11:06:39;;;;;;;6.45;2.70;;;;;;;1.06;57.61;93563.69;5066157;28;20059;-87
2023/03/28 11:09:26;;;;;;;3.22;1.92;;;;;;;1.02;55.92;93539.00;5066159;28;20032;-85
2023/03/28 11:12:51;;;;;;;6.82;2.10;;;;;;;0.89;54.66;93530.59;5066205;28;20021;-84
2023/03/28 11:15:25;;;;;;;4.60;2.30;;;;;;;0.92;54.41;93558.97;5014675;28;20029;-84
2023/03/28 11:18:05;;;;;;;4.65;2.95;;;;;;;0.95;55.25;93542.69;5044380;28;20025;-86
2023/03/28 11:20:38;;;;;;;7.43;3.58;;;;;;;1.00;55.95;93574.19;5060807;28;20323;-85
2023/03/28 11:23:40;;;;;;;5.38;2.45;;;;;;;1.04;54.07;93561.34;5065823;28;20016;-85
2023/03/28 11:26:11;;;;;;;5.20;2.72;;;;;;;1.01;53.45;93556.59;5065754;28;20025;-84
2023/03/28 11:29:15;;;;;;;5.97;3.30;;;;;;;1.23;54.26;93561.63;5065753;28;20070;-85
2023/03/28 11:31:59;;;;;;;3.67;2.15;;;;;;;1.04;52.92;93550.03;5065662;28;20087;-83
2023/03/28 11:34:32;;;;;;;5.32;2.75;;;;;;;1.17;54.12;93533.78;5065755;28;20032;-84
2023/03/28 11:37:02;;;;;;;;;;;;;;;1.43;53.10;93544.31;5066204;28;20021;-83
2023/03/28 11:39:41;;;;;;;5.20;2.53;;;;;;;1.47;50.91;93542.72;5065630;28;19928;-84
2023/03/28 11:42:12;;;;;;;4.97;2.90;;;;;;;1.55;50.91;93537.72;5065619;28;20102;-85
2023/03/28 11:44:47;;;;;;;5.20;2.80;;;;;;;1.58;51.32;93567.91;5065714;28;20103;-84
2023/03/28 11:47:22;;;;;;;3.13;1.85;;;;;;;1.89;50.54;93570.50;5065444;28;20227;-84
2023/03/28 11:50:03;;;;;;;2.95;1.98;;;;;;;1.74;48.07;93564.22;5065633;28;20033;-83
2023/03/28 11:52:37;;;;;;;5.03;2.17;;;;;;;1.77;48.27;93555.81;5065450;28;20021;-84
2023/03/28 11:55:15;;;;;;;3.50;2.08;;;;;;;1.75;47.02;93578.13;5065450;28;20020;-84